Lehigh, Kansas
Current Conditions -  °F | °C
As of 7:35 AM on Friday 24 Oct 2014 (Local Time) from KEWK Reporting Station
Clear Clear  
Wind Chill: 55°   Ceiling: Unl
Heat Index: 55°   Visibility: 3mi
Dew Point: 52°   Wind: 7mph
Humidity: 88%   Direction: 190°S
Pressure: 30.07"   Gusts: NA
Location:  38.37°N, 97.3°W
Report Text: KEWK 241235Z AUTO 19006KT 3SM CLR 13/11 A3007 RMK AO1
Loading
Personal Weather Stations






























Interactive Weather Map
Tropical Storm Tracking
New forecast layout! Learn more

10-Day Weather Forecast

Advertisements
Track Severe Weather on mobile